createdAt,value
2016-08-22T00:00:14.025Z,73.32
2016-08-22T00:00:35.750Z,73.26
2016-08-22T00:00:57.473Z,73.28
2016-08-22T00:01:19.190Z,73.27
2016-08-22T00:01:40.916Z,73.43
2016-08-22T00:02:02.635Z,73.32
2016-08-22T00:02:24.437Z,73.32
2016-08-22T00:02:46.153Z,73.68
2016-08-22T00:03:07.877Z,73.91
2016-08-22T00:03:29.592Z,73.67
2016-08-22T00:03:51.309Z,73.33
2016-08-22T00:04:13.023Z,73.19
2016-08-22T00:04:34.737Z,73.34
2016-08-22T00:04:56.454Z,73.45
2016-08-22T00:05:18.166Z,73.48
2016-08-22T00:05:39.881Z,73.34
2016-08-22T00:06:01.604Z,73.05
2016-08-22T00:06:23.318Z,73.17
2016-08-22T00:06:45.036Z,73.09
2016-08-22T00:07:06.870Z,73.34
2016-08-22T00:07:28.585Z,73.61
2016-08-22T00:07:50.316Z,73.56
2016-08-22T00:08:12.032Z,73.52
2016-08-22T00:08:33.750Z,73.42
2016-08-22T00:08:55.468Z,73.55
2016-08-22T00:09:17.180Z,73.36
2016-08-22T00:09:38.912Z,73.10
2016-08-22T00:10:00.668Z,73.15
2016-08-22T00:10:22.370Z,73.00
2016-08-22T00:10:44.085Z,73.07
2016-08-22T00:11:05.804Z,72.91
2016-08-22T00:11:27.519Z,73.45
2016-08-22T00:11:49.233Z,73.65
2016-08-22T00:12:10.950Z,73.91
2016-08-22T00:12:32.662Z,73.94
2016-08-22T00:12:54.374Z,73.81
2016-08-22T00:13:16.096Z,73.53
2016-08-22T00:13:37.824Z,73.46
2016-08-22T00:13:59.545Z,73.14
2016-08-22T00:14:21.289Z,73.08
2016-08-22T00:14:43.009Z,73.15
2016-08-22T00:15:04.724Z,73.30
2016-08-22T00:15:26.458Z,73.15
2016-08-22T00:15:48.171Z,72.99
2016-08-22T00:16:09.888Z,72.98
2016-08-22T00:16:31.609Z,73.11
2016-08-22T00:16:53.324Z,73.33
2016-08-22T00:17:15.061Z,73.15
2016-08-22T00:17:36.779Z,73.11
2016-08-22T00:17:58.502Z,73.20
2016-08-22T00:18:20.216Z,73.16
2016-08-22T00:18:41.932Z,73.40
2016-08-22T00:19:03.677Z,73.32
2016-08-22T00:19:25.395Z,73.15
2016-08-22T00:19:47.110Z,73.04
2016-08-22T00:20:08.828Z,73.09
2016-08-22T00:20:30.549Z,73.12
2016-08-22T00:20:52.295Z,73.08
2016-08-22T00:21:14.015Z,73.06
2016-08-22T00:21:35.740Z,73.14
2016-08-22T00:21:57.465Z,73.07
2016-08-22T00:22:19.182Z,73.12
2016-08-22T00:22:40.894Z,73.21
2016-08-22T00:23:02.620Z,73.21
2016-08-22T00:23:24.359Z,73.38
2016-08-22T00:23:46.077Z,73.96
2016-08-22T00:24:07.801Z,74.18
2016-08-22T00:24:29.519Z,74.13
2016-08-22T00:24:51.234Z,73.90
2016-08-22T00:25:12.944Z,73.97
2016-08-22T00:25:34.677Z,74.16
2016-08-22T00:25:56.395Z,74.44
2016-08-22T00:26:18.115Z,74.29
2016-08-22T00:26:39.834Z,74.04
2016-08-22T00:27:01.556Z,73.86
2016-08-22T00:27:23.278Z,73.94
2016-08-22T00:27:45.007Z,73.99
2016-08-22T00:28:06.722Z,73.80
2016-08-22T00:28:28.450Z,73.60
2016-08-22T00:28:50.163Z,73.42
2016-08-22T00:29:11.885Z,73.74
2016-08-22T00:29:33.606Z,74.07
2016-08-22T00:29:55.317Z,74.20
2016-08-22T00:30:17.030Z,74.07
2016-08-22T00:30:38.743Z,73.90
2016-08-22T00:31:00.464Z,74.35
2016-08-22T00:31:22.175Z,74.77
2016-08-22T00:31:43.894Z,74.92
2016-08-22T00:32:05.655Z,75.15
2016-08-22T00:32:27.383Z,75.31
2016-08-22T00:32:49.190Z,75.34
2016-08-22T00:33:10.906Z,74.99
2016-08-22T00:33:32.623Z,75.09
2016-08-22T00:33:54.355Z,75.11
2016-08-22T00:34:16.089Z,75.16
2016-08-22T00:34:37.802Z,75.24
2016-08-22T00:34:59.516Z,75.19
2016-08-22T00:35:21.292Z,75.02
2016-08-22T00:35:43.015Z,74.94
2016-08-22T00:36:04.739Z,74.93
2016-08-22T00:36:26.467Z,75.32
2016-08-22T00:36:48.189Z,75.46
2016-08-22T00:37:09.906Z,75.28
2016-08-22T00:37:31.625Z,75.35
2016-08-22T00:37:53.353Z,75.29
2016-08-22T00:38:15.063Z,75.20
2016-08-22T00:38:36.781Z,75.29
2016-08-22T00:38:58.496Z,75.28
2016-08-22T00:39:20.217Z,74.90
2016-08-22T00:39:41.938Z,74.93
2016-08-22T00:40:03.661Z,74.73
2016-08-22T00:40:25.376Z,74.46
2016-08-22T00:40:47.109Z,74.46
2016-08-22T00:41:08.823Z,74.39
2016-08-22T00:41:30.533Z,74.20
2016-08-22T00:41:52.246Z,74.11
2016-08-22T00:42:13.966Z,74.05
2016-08-22T00:42:35.713Z,74.01
2016-08-22T00:42:57.429Z,73.92
2016-08-22T00:43:19.149Z,73.90
2016-08-22T00:43:40.863Z,74.42
2016-08-22T00:44:02.590Z,74.64
2016-08-22T00:44:24.347Z,74.67
2016-08-22T00:44:46.061Z,74.63
2016-08-22T00:45:07.781Z,74.40
2016-08-22T00:45:29.503Z,74.59
2016-08-22T00:45:51.220Z,75.48
2016-08-22T00:46:12.938Z,75.88
2016-08-22T00:46:34.669Z,75.76
2016-08-22T00:46:56.386Z,75.40
2016-08-22T00:47:18.100Z,75.22
2016-08-22T00:47:39.828Z,75.10
2016-08-22T00:48:01.539Z,75.12
2016-08-22T00:48:23.263Z,75.38
2016-08-22T00:48:44.985Z,75.58
2016-08-22T00:49:06.700Z,75.79
2016-08-22T00:49:28.421Z,76.28
2016-08-22T00:49:50.153Z,76.03
2016-08-22T00:50:11.871Z,75.74
2016-08-22T00:50:33.589Z,75.54
2016-08-22T00:50:55.308Z,75.24
2016-08-22T00:51:17.037Z,75.03
2016-08-22T00:51:38.768Z,75.07
2016-08-22T00:52:00.476Z,74.98
2016-08-22T00:52:22.194Z,74.88
2016-08-22T00:52:43.914Z,74.88
2016-08-22T00:53:05.625Z,74.93
2016-08-22T00:53:27.340Z,74.93
2016-08-22T00:53:49.062Z,74.94
2016-08-22T00:54:10.780Z,75.22
2016-08-22T00:54:32.504Z,75.64
2016-08-22T00:54:54.231Z,75.83
2016-08-22T00:55:15.943Z,76.16
2016-08-22T00:55:37.664Z,75.80
2016-08-22T00:55:59.385Z,75.77
2016-08-22T00:56:21.103Z,75.99
2016-08-22T00:56:42.853Z,76.10
2016-08-22T00:57:04.583Z,75.93
2016-08-22T00:57:26.310Z,75.94
2016-08-22T00:57:48.031Z,76.37
2016-08-22T00:58:09.751Z,76.44
2016-08-22T00:58:31.466Z,76.48
2016-08-22T00:58:53.197Z,76.48
2016-08-22T00:59:14.911Z,76.55
2016-08-22T00:59:36.626Z,76.27
2016-08-22T00:59:58.353Z,76.05
2016-08-22T01:00:20.062Z,75.82
2016-08-22T01:00:41.779Z,75.38
2016-08-22T01:01:03.501Z,75.12
2016-08-22T01:01:25.225Z,75.02
2016-08-22T01:01:46.940Z,75.33
2016-08-22T01:02:08.680Z,75.93
2016-08-22T01:02:30.400Z,76.11
2016-08-22T01:02:52.114Z,76.54
2016-08-22T01:03:13.840Z,76.35
2016-08-22T01:03:35.555Z,76.22
2016-08-22T01:03:57.274Z,75.86
2016-08-22T01:04:19.190Z,76.00
2016-08-22T01:04:40.900Z,76.11
2016-08-22T01:05:02.619Z,76.23
2016-08-22T01:05:24.340Z,76.49
2016-08-22T01:05:46.072Z,76.76
2016-08-22T01:06:07.782Z,76.54
2016-08-22T01:06:29.504Z,76.50
2016-08-22T01:06:51.227Z,76.22
2016-08-22T01:07:12.944Z,76.15
2016-08-22T01:07:34.660Z,76.39
2016-08-22T01:07:56.377Z,76.27
2016-08-22T01:08:18.090Z,76.47
2016-08-22T01:08:39.810Z,77.05
2016-08-22T01:09:01.527Z,77.07
2016-08-22T01:09:23.243Z,77.15
2016-08-22T01:09:44.951Z,77.18
2016-08-22T01:10:06.667Z,77.29
2016-08-22T01:10:28.380Z,77.23
2016-08-22T01:10:50.096Z,76.79
2016-08-22T01:11:11.817Z,76.77
2016-08-22T01:11:33.534Z,76.89
2016-08-22T01:11:55.285Z,76.96
2016-08-22T01:12:16.999Z,76.80
2016-08-22T01:12:38.716Z,76.37
2016-08-22T01:13:00.452Z,76.35
2016-08-22T01:13:22.144Z,76.36
2016-08-22T01:13:43.859Z,76.26
2016-08-22T01:14:05.573Z,76.02
2016-08-22T01:14:27.296Z,75.91
2016-08-22T01:14:49.012Z,76.00
2016-08-22T01:15:10.729Z,76.04
2016-08-22T01:15:32.449Z,75.97
2016-08-22T01:15:54.172Z,75.86
2016-08-22T01:16:15.891Z,75.71
2016-08-22T01:16:40.441Z,75.70
2016-08-22T01:17:02.163Z,75.74
2016-08-22T01:17:23.881Z,75.88
2016-08-22T01:17:45.596Z,75.88
2016-08-22T01:18:07.308Z,76.06
2016-08-22T01:18:29.037Z,76.24
2016-08-22T01:18:50.749Z,76.52
2016-08-22T01:19:12.466Z,76.68
2016-08-22T01:19:34.191Z,76.57
2016-08-22T01:19:55.917Z,76.48
2016-08-22T01:20:17.747Z,76.44
2016-08-22T01:20:39.462Z,76.43
2016-08-22T01:21:01.264Z,76.60
2016-08-22T01:21:22.984Z,77.03
2016-08-22T01:21:44.695Z,77.12
2016-08-22T01:22:06.409Z,77.15
2016-08-22T01:22:28.259Z,77.04
2016-08-22T01:22:49.983Z,77.12
2016-08-22T01:23:11.703Z,77.02
2016-08-22T01:23:33.427Z,77.01
2016-08-22T01:23:55.141Z,77.29
2016-08-22T01:24:16.858Z,77.47
2016-08-22T01:24:38.590Z,77.62
2016-08-22T01:25:00.301Z,77.54
2016-08-22T01:25:22.016Z,77.41
2016-08-22T01:25:43.740Z,77.44
2016-08-22T01:26:05.457Z,77.21
2016-08-22T01:26:27.203Z,77.02
2016-08-22T01:26:48.919Z,76.84
2016-08-22T01:27:10.656Z,76.58
2016-08-22T01:27:32.386Z,76.92
2016-08-22T01:27:54.124Z,77.45
2016-08-22T01:28:15.844Z,77.74
2016-08-22T01:28:37.567Z,78.09
2016-08-22T01:28:59.299Z,78.14
2016-08-22T01:29:21.019Z,78.09
2016-08-22T01:29:42.733Z,77.71
2016-08-22T01:30:04.451Z,77.31
2016-08-22T01:30:26.179Z,77.23
2016-08-22T01:30:47.898Z,77.04
2016-08-22T01:31:09.620Z,77.05
2016-08-22T01:31:31.333Z,77.15
2016-08-22T01:31:53.050Z,77.72
2016-08-22T01:32:14.769Z,77.62
2016-08-22T01:32:36.490Z,77.47
2016-08-22T01:32:58.204Z,77.67
2016-08-22T01:33:19.922Z,77.56
2016-08-22T01:33:41.666Z,77.18
2016-08-22T01:34:03.384Z,76.99
2016-08-22T01:34:25.103Z,76.73
2016-08-22T01:34:46.825Z,76.51
2016-08-22T01:35:08.550Z,76.60
2016-08-22T01:35:30.275Z,76.57
2016-08-22T01:35:51.990Z,76.78
2016-08-22T01:36:13.708Z,76.79
2016-08-22T01:36:35.421Z,76.78
2016-08-22T01:36:57.133Z,76.58
2016-08-22T01:37:18.845Z,77.10
2016-08-22T01:37:40.569Z,77.27
2016-08-22T01:38:02.289Z,77.46
2016-08-22T01:38:24.016Z,77.87
2016-08-22T01:38:45.734Z,77.71
2016-08-22T01:39:07.451Z,77.54
2016-08-22T01:39:29.163Z,77.48
2016-08-22T01:39:50.876Z,77.49
2016-08-22T01:40:12.598Z,77.51
2016-08-22T01:40:34.316Z,77.34
2016-08-22T01:40:56.032Z,77.26
2016-08-22T01:41:17.742Z,77.44
2016-08-22T01:41:39.468Z,77.21
2016-08-22T01:42:01.185Z,77.11
2016-08-22T01:42:22.982Z,77.19
2016-08-22T01:42:44.698Z,77.06
2016-08-22T01:43:06.420Z,76.88
2016-08-22T01:43:28.133Z,76.90
2016-08-22T01:43:49.847Z,77.07
2016-08-22T01:44:11.570Z,77.11
2016-08-22T01:44:33.283Z,76.99
2016-08-22T01:44:54.993Z,77.21
2016-08-22T01:45:16.707Z,77.29
2016-08-22T01:45:38.434Z,77.18
2016-08-22T01:46:00.156Z,77.24
2016-08-22T01:46:21.881Z,76.96
2016-08-22T01:46:43.660Z,77.11
2016-08-22T01:47:05.385Z,76.82
2016-08-22T01:47:27.098Z,76.88
2016-08-22T01:47:48.812Z,77.22
2016-08-22T01:48:10.534Z,77.48
2016-08-22T01:48:32.245Z,77.64
2016-08-22T01:48:53.967Z,77.67
2016-08-22T01:49:15.683Z,77.88
2016-08-22T01:49:37.408Z,77.70
2016-08-22T01:49:59.131Z,77.46
2016-08-22T01:50:20.855Z,77.63
2016-08-22T01:50:42.576Z,77.48
2016-08-22T01:51:06.923Z,77.23
2016-08-22T01:51:28.637Z,77.30
2016-08-22T01:51:50.355Z,77.37
2016-08-22T01:52:12.071Z,77.29
2016-08-22T01:52:33.797Z,77.49
2016-08-22T01:52:55.591Z,77.31
2016-08-22T01:53:17.346Z,77.25
2016-08-22T01:53:39.100Z,77.20
2016-08-22T01:54:00.811Z,77.58
2016-08-22T01:54:22.525Z,77.71
2016-08-22T01:54:44.251Z,77.89
2016-08-22T01:55:05.965Z,77.59
2016-08-22T01:55:27.687Z,77.33
2016-08-22T01:55:49.408Z,77.02
2016-08-22T01:56:11.133Z,77.38
2016-08-22T01:56:32.843Z,77.16
2016-08-22T01:56:54.560Z,77.02
2016-08-22T01:57:16.285Z,77.12
2016-08-22T01:57:38.012Z,77.07
2016-08-22T01:57:59.727Z,77.33
2016-08-22T01:58:21.442Z,77.17
2016-08-22T01:58:43.161Z,77.01
2016-08-22T01:59:04.893Z,77.09
2016-08-22T01:59:26.604Z,76.89
2016-08-22T01:59:48.319Z,76.65
2016-08-22T02:00:10.044Z,76.72
2016-08-22T02:00:31.764Z,76.81
2016-08-22T02:00:53.481Z,76.75
2016-08-22T02:01:15.203Z,77.20
2016-08-22T02:01:36.919Z,77.65
2016-08-22T02:01:58.633Z,77.75
2016-08-22T02:02:20.346Z,77.82
2016-08-22T02:02:42.064Z,77.62
2016-08-22T02:03:03.782Z,77.32
2016-08-22T02:03:25.503Z,77.38
2016-08-22T02:03:47.219Z,77.20
2016-08-22T02:04:08.944Z,77.36
2016-08-22T02:04:30.658Z,77.80
2016-08-22T02:04:52.382Z,78.17
2016-08-22T02:05:14.098Z,78.20
2016-08-22T02:05:35.814Z,77.57
2016-08-22T02:05:57.538Z,77.25
2016-08-22T02:06:19.266Z,77.45
2016-08-22T02:06:40.990Z,77.44
2016-08-22T02:07:02.713Z,77.27
2016-08-22T02:07:24.435Z,77.14
2016-08-22T02:07:46.148Z,77.13
2016-08-22T02:08:07.862Z,76.80
2016-08-22T02:08:29.579Z,76.85
2016-08-22T02:08:51.297Z,76.62
2016-08-22T02:09:13.089Z,76.49
2016-08-22T02:09:34.810Z,76.62
2016-08-22T02:09:56.528Z,77.01
2016-08-22T02:10:18.236Z,77.36
2016-08-22T02:10:39.977Z,77.96
2016-08-22T02:11:01.695Z,77.88
2016-08-22T02:11:23.405Z,78.16
2016-08-22T02:11:45.123Z,78.01
2016-08-22T02:12:06.833Z,77.88
2016-08-22T02:12:28.560Z,77.80
2016-08-22T02:12:50.362Z,77.70
2016-08-22T02:13:12.076Z,77.43
2016-08-22T02:13:33.797Z,77.57
2016-08-22T02:13:55.513Z,77.59
2016-08-22T02:14:17.229Z,77.61
2016-08-22T02:14:38.943Z,77.26
2016-08-22T02:15:00.665Z,77.16
2016-08-22T02:15:22.387Z,77.34
2016-08-22T02:15:44.110Z,77.28
2016-08-22T02:16:05.826Z,77.37
2016-08-22T02:16:27.545Z,77.27
2016-08-22T02:16:49.262Z,77.13
2016-08-22T02:17:10.978Z,77.18
2016-08-22T02:17:32.705Z,77.09
2016-08-22T02:17:55.417Z,77.27
2016-08-22T02:18:17.133Z,77.30
2016-08-22T02:18:38.858Z,77.12
2016-08-22T02:19:00.572Z,77.06
2016-08-22T02:19:22.291Z,77.03
2016-08-22T02:19:44.002Z,77.25
2016-08-22T02:20:05.725Z,77.30
2016-08-22T02:20:27.439Z,77.28
2016-08-22T02:20:49.154Z,77.18
2016-08-22T02:21:10.873Z,77.02
2016-08-22T02:21:32.578Z,77.02
2016-08-22T02:21:54.319Z,76.71
2016-08-22T02:22:16.039Z,76.61
2016-08-22T02:22:37.754Z,76.71
2016-08-22T02:22:59.468Z,76.94
2016-08-22T02:23:21.185Z,77.55
2016-08-22T02:23:42.901Z,77.78
2016-08-22T02:24:04.623Z,78.22
2016-08-22T02:24:26.329Z,77.97
2016-08-22T02:24:48.046Z,77.82
2016-08-22T02:25:09.761Z,77.83
2016-08-22T02:25:31.481Z,77.83
2016-08-22T02:25:53.190Z,77.69
2016-08-22T02:26:14.909Z,77.64
2016-08-22T02:26:36.627Z,77.48
2016-08-22T02:26:58.342Z,77.22
2016-08-22T02:27:20.063Z,77.02
2016-08-22T02:27:41.789Z,76.90
2016-08-22T02:28:03.506Z,76.89
2016-08-22T02:28:25.300Z,77.11
2016-08-22T02:28:47.021Z,77.13
2016-08-22T02:29:08.741Z,76.92
2016-08-22T02:29:30.453Z,76.84
2016-08-22T02:29:52.170Z,77.03
2016-08-22T02:30:13.881Z,77.30
2016-08-22T02:30:35.598Z,77.26
2016-08-22T02:30:57.315Z,77.37
2016-08-22T02:31:19.030Z,77.25
2016-08-22T02:31:40.748Z,77.23
2016-08-22T02:32:02.473Z,77.36
2016-08-22T02:32:24.189Z,77.63
2016-08-22T02:32:45.961Z,77.87
2016-08-22T02:33:07.676Z,78.11
2016-08-22T02:33:29.420Z,78.00
2016-08-22T02:33:51.125Z,77.82
2016-08-22T02:34:12.843Z,77.56
2016-08-22T02:34:34.559Z,77.32
2016-08-22T02:34:56.276Z,77.43
2016-08-22T02:35:17.991Z,77.86
2016-08-22T02:35:39.705Z,78.12
2016-08-22T02:36:01.419Z,77.92
2016-08-22T02:36:23.131Z,77.68
2016-08-22T02:36:44.844Z,77.71
2016-08-22T02:37:06.556Z,78.05
2016-08-22T02:37:28.288Z,78.28
2016-08-22T02:37:49.993Z,78.59
2016-08-22T02:38:11.721Z,78.75
2016-08-22T02:38:33.436Z,78.96
2016-08-22T02:38:55.150Z,78.80
2016-08-22T02:39:16.866Z,78.64
2016-08-22T02:39:38.589Z,78.65
2016-08-22T02:40:00.307Z,78.79
2016-08-22T02:40:22.022Z,78.51
2016-08-22T02:40:43.756Z,78.47
2016-08-22T02:41:05.469Z,78.14
2016-08-22T02:41:27.191Z,78.47
2016-08-22T02:41:48.995Z,78.82
2016-08-22T02:42:10.703Z,78.96
2016-08-22T02:42:32.425Z,79.04
2016-08-22T02:42:54.137Z,79.06
2016-08-22T02:43:15.850Z,78.74
2016-08-22T02:43:37.561Z,78.54
2016-08-22T02:44:00.276Z,78.34
2016-08-22T02:44:21.995Z,77.96
2016-08-22T02:44:43.709Z,77.86
2016-08-22T02:45:05.427Z,77.71
2016-08-22T02:45:27.151Z,77.56
2016-08-22T02:45:48.862Z,77.48
2016-08-22T02:46:10.576Z,77.65
2016-08-22T02:46:32.295Z,77.54
2016-08-22T02:46:54.032Z,77.90
2016-08-22T02:47:15.747Z,78.02
2016-08-22T02:47:37.465Z,77.80
2016-08-22T02:47:59.305Z,78.06
2016-08-22T02:48:21.166Z,78.58
2016-08-22T02:48:42.879Z,78.43
2016-08-22T02:49:04.595Z,78.73
2016-08-22T02:49:26.308Z,78.72
2016-08-22T02:49:48.024Z,78.66
2016-08-22T02:50:09.767Z,78.81
2016-08-22T02:50:31.497Z,78.67
2016-08-22T02:50:53.206Z,78.46
2016-08-22T02:51:14.920Z,78.32
2016-08-22T02:51:36.639Z,78.11
2016-08-22T02:51:58.367Z,77.85
2016-08-22T02:52:20.087Z,77.66
2016-08-22T02:52:41.801Z,77.60
2016-08-22T02:53:03.526Z,77.92
2016-08-22T02:53:25.242Z,78.39
2016-08-22T02:53:46.985Z,78.53
2016-08-22T02:54:08.716Z,78.87
2016-08-22T02:54:30.430Z,78.54
2016-08-22T02:54:52.146Z,78.27
2016-08-22T02:55:13.862Z,78.29
2016-08-22T02:55:35.573Z,78.12
2016-08-22T02:55:57.293Z,78.05
2016-08-22T02:56:19.017Z,77.94
2016-08-22T02:56:40.719Z,77.73
2016-08-22T02:57:02.438Z,77.52
2016-08-22T02:57:24.166Z,77.36
2016-08-22T02:57:45.891Z,77.41
2016-08-22T02:58:07.607Z,78.00
2016-08-22T02:58:29.322Z,78.13
2016-08-22T02:58:51.037Z,77.96
2016-08-22T02:59:12.765Z,77.93
2016-08-22T02:59:34.496Z,78.06
2016-08-22T02:59:56.204Z,77.83
2016-08-22T03:00:17.922Z,77.65
2016-08-22T03:00:39.664Z,77.57
2016-08-22T03:01:01.382Z,77.39
2016-08-22T03:01:23.098Z,77.55
2016-08-22T03:01:44.810Z,77.43
2016-08-22T03:02:06.522Z,77.30
2016-08-22T03:02:28.236Z,77.29
2016-08-22T03:02:49.959Z,77.34
2016-08-22T03:03:11.674Z,77.39
2016-08-22T03:03:33.431Z,77.81
2016-08-22T03:03:55.145Z,78.08
2016-08-22T03:04:16.916Z,77.77
2016-08-22T03:04:38.640Z,77.59
2016-08-22T03:05:00.359Z,77.63
2016-08-22T03:05:22.073Z,77.63
2016-08-22T03:05:43.799Z,77.58
2016-08-22T03:06:05.512Z,77.77
2016-08-22T03:06:27.230Z,78.10
2016-08-22T03:06:48.945Z,78.10
2016-08-22T03:07:10.665Z,78.58
2016-08-22T03:07:32.379Z,78.81
2016-08-22T03:07:54.161Z,78.78
2016-08-22T03:08:15.880Z,78.62
2016-08-22T03:08:37.593Z,78.28
2016-08-22T03:08:59.315Z,78.22
2016-08-22T03:09:21.030Z,78.24
2016-08-22T03:09:42.752Z,78.02
2016-08-22T03:10:04.470Z,77.90
2016-08-22T03:10:26.186Z,77.98
2016-08-22T03:10:47.907Z,78.25
2016-08-22T03:11:09.623Z,78.50
2016-08-22T03:11:31.342Z,79.20
2016-08-22T03:11:53.072Z,79.49
2016-08-22T03:12:14.801Z,79.30
2016-08-22T03:12:36.496Z,79.59
2016-08-22T03:12:58.219Z,79.41
2016-08-22T03:13:19.944Z,79.35
2016-08-22T03:13:41.658Z,79.50
2016-08-22T03:14:03.381Z,79.53
2016-08-22T03:14:25.088Z,79.40
2016-08-22T03:14:46.803Z,79.25
2016-08-22T03:15:08.513Z,78.86
2016-08-22T03:15:30.227Z,78.42
2016-08-22T03:15:51.955Z,78.26
2016-08-22T03:16:13.681Z,78.34
2016-08-22T03:16:35.398Z,78.40
2016-08-22T03:16:57.115Z,78.28
2016-08-22T03:17:18.848Z,78.61
2016-08-22T03:17:40.566Z,78.57
2016-08-22T03:18:02.290Z,78.80
2016-08-22T03:18:24.003Z,79.16
2016-08-22T03:18:45.718Z,79.07
2016-08-22T03:19:07.455Z,78.62
2016-08-22T03:19:29.168Z,78.60
2016-08-22T03:19:53.293Z,78.84
2016-08-22T03:20:15.107Z,79.01
2016-08-22T03:20:36.805Z,78.89
2016-08-22T03:20:58.525Z,79.15
2016-08-22T03:21:20.240Z,79.49
2016-08-22T03:21:41.952Z,79.28
2016-08-22T03:22:03.670Z,78.88
2016-08-22T03:22:25.391Z,78.58
2016-08-22T03:22:47.113Z,78.62
2016-08-22T03:23:08.862Z,78.55
2016-08-22T03:23:30.578Z,78.34
2016-08-22T03:23:52.291Z,78.64
2016-08-22T03:24:14.013Z,79.15
2016-08-22T03:24:35.735Z,79.23
2016-08-22T03:24:57.461Z,78.85
2016-08-22T03:25:19.186Z,79.11
2016-08-22T03:25:40.896Z,79.38
2016-08-22T03:26:02.608Z,79.77
2016-08-22T03:26:24.320Z,79.45
2016-08-22T03:26:46.032Z,79.13
2016-08-22T03:27:07.749Z,79.08
2016-08-22T03:27:29.468Z,78.81
2016-08-22T03:27:51.194Z,78.45
2016-08-22T03:28:12.910Z,78.16
2016-08-22T03:28:34.630Z,78.47
2016-08-22T03:28:56.349Z,78.30
2016-08-22T03:29:18.061Z,78.21
2016-08-22T03:29:39.776Z,78.30
2016-08-22T03:30:01.492Z,78.16
2016-08-22T03:30:23.213Z,78.03
2016-08-22T03:30:44.940Z,78.21
2016-08-22T03:31:06.645Z,78.18
2016-08-22T03:31:28.362Z,78.06
2016-08-22T03:31:50.073Z,78.70
2016-08-22T03:32:11.792Z,79.21
2016-08-22T03:32:33.511Z,79.53
2016-08-22T03:32:55.229Z,79.87
2016-08-22T03:33:16.943Z,79.68
2016-08-22T03:33:38.662Z,79.55
2016-08-22T03:34:00.377Z,80.10
2016-08-22T03:34:22.103Z,80.25
2016-08-22T03:34:43.818Z,80.02
2016-08-22T03:35:05.533Z,79.51
2016-08-22T03:35:27.245Z,79.54
2016-08-22T03:35:48.960Z,79.86
2016-08-22T03:36:10.669Z,79.73
2016-08-22T03:36:32.389Z,79.46
2016-08-22T03:36:54.109Z,79.57
2016-08-22T03:37:15.824Z,79.52
2016-08-22T03:37:37.539Z,79.04
2016-08-22T03:37:59.258Z,79.01
2016-08-22T03:38:20.969Z,78.80
2016-08-22T03:38:42.818Z,78.77
2016-08-22T03:39:04.533Z,78.82
2016-08-22T03:39:26.249Z,78.95
2016-08-22T03:39:47.965Z,79.31
2016-08-22T03:40:09.681Z,79.48
2016-08-22T03:40:31.400Z,79.27
2016-08-22T03:40:53.122Z,79.14
2016-08-22T03:41:14.841Z,78.90
2016-08-22T03:41:36.554Z,78.86
2016-08-22T03:41:58.278Z,78.94
2016-08-22T03:42:19.985Z,78.92
2016-08-22T03:42:41.697Z,79.11
2016-08-22T03:43:03.536Z,79.01
2016-08-22T03:43:25.253Z,78.71
2016-08-22T03:43:46.974Z,78.52
2016-08-22T03:44:08.685Z,78.44
2016-08-22T03:44:30.404Z,78.37
2016-08-22T03:44:52.113Z,78.78
2016-08-22T03:45:13.831Z,79.31
2016-08-22T03:45:35.571Z,79.40
2016-08-22T03:45:57.261Z,79.59
2016-08-22T03:46:18.970Z,79.55
2016-08-22T03:46:40.685Z,79.49
2016-08-22T03:47:02.418Z,79.44
2016-08-22T03:47:24.141Z,79.41
2016-08-22T03:47:45.871Z,79.24
2016-08-22T03:48:07.584Z,79.03
2016-08-22T03:48:29.299Z,79.01
2016-08-22T03:48:51.012Z,79.14
2016-08-22T03:49:12.737Z,79.14
2016-08-22T03:49:34.449Z,79.29
2016-08-22T03:49:56.166Z,79.42
2016-08-22T03:50:17.884Z,79.34
2016-08-22T03:50:39.605Z,79.43
2016-08-22T03:51:01.322Z,79.69
2016-08-22T03:51:23.040Z,79.25
2016-08-22T03:51:44.777Z,79.04
2016-08-22T03:52:06.493Z,79.41
2016-08-22T03:52:28.215Z,79.62
2016-08-22T03:52:49.932Z,79.42
2016-08-22T03:53:11.653Z,79.35
2016-08-22T03:53:33.369Z,79.07
2016-08-22T03:53:55.086Z,78.75
2016-08-22T03:54:16.800Z,78.77
2016-08-22T03:54:38.512Z,79.03
2016-08-22T03:55:00.224Z,79.48
2016-08-22T03:55:21.941Z,79.24
2016-08-22T03:55:43.661Z,78.77
2016-08-22T03:56:05.373Z,78.41
2016-08-22T03:56:27.091Z,78.42
2016-08-22T03:56:48.802Z,78.62
2016-08-22T03:57:10.531Z,78.50
2016-08-22T03:57:32.246Z,78.74
2016-08-22T03:57:53.964Z,78.83
2016-08-22T03:58:15.677Z,78.67
2016-08-22T03:58:37.417Z,78.60
2016-08-22T03:58:59.135Z,78.36
2016-08-22T03:59:20.860Z,78.22
2016-08-22T03:59:42.575Z,78.10
2016-08-22T04:00:04.292Z,78.09
2016-08-22T04:00:26.016Z,77.89
2016-08-22T04:00:47.732Z,78.12
2016-08-22T04:01:09.456Z,78.06
2016-08-22T04:01:31.174Z,77.93
2016-08-22T04:01:52.886Z,77.87
2016-08-22T04:02:14.601Z,78.25
2016-08-22T04:02:36.315Z,78.57
2016-08-22T04:02:58.164Z,78.21
2016-08-22T04:03:19.871Z,78.16
2016-08-22T04:03:41.587Z,78.20
2016-08-22T04:04:03.309Z,78.79
2016-08-22T04:04:25.029Z,78.75
2016-08-22T04:04:46.755Z,78.94
2016-08-22T04:05:08.463Z,79.07
2016-08-22T04:05:30.178Z,79.09
2016-08-22T04:05:51.888Z,78.81
2016-08-22T04:06:13.601Z,78.65
2016-08-22T04:06:35.323Z,78.89
2016-08-22T04:06:57.034Z,79.36
2016-08-22T04:07:18.744Z,79.60
2016-08-22T04:07:40.463Z,79.56
2016-08-22T04:08:02.181Z,79.73
2016-08-22T04:08:23.902Z,79.62
2016-08-22T04:08:45.619Z,79.19
2016-08-22T04:09:07.331Z,78.92
2016-08-22T04:09:29.053Z,78.71
2016-08-22T04:09:50.773Z,79.00
2016-08-22T04:10:12.488Z,79.50
2016-08-22T04:10:34.204Z,79.57
2016-08-22T04:10:55.923Z,80.03
2016-08-22T04:11:17.640Z,79.78
2016-08-22T04:11:39.358Z,79.45
2016-08-22T04:12:01.077Z,79.73
2016-08-22T04:12:22.797Z,79.54
2016-08-22T04:12:44.507Z,79.51
2016-08-22T04:13:06.226Z,79.77
2016-08-22T04:13:27.942Z,79.96
2016-08-22T04:13:49.659Z,80.12
2016-08-22T04:14:11.374Z,79.89
2016-08-22T04:14:33.095Z,79.58
2016-08-22T04:14:54.811Z,79.25
2016-08-22T04:15:16.527Z,79.14
2016-08-22T04:15:38.243Z,79.53
2016-08-22T04:15:59.951Z,79.60
2016-08-22T04:16:21.659Z,79.79
2016-08-22T04:16:43.375Z,79.90
2016-08-22T04:17:05.097Z,80.01
2016-08-22T04:17:26.809Z,79.93
2016-08-22T04:17:48.536Z,80.02
2016-08-22T04:18:10.236Z,80.36
2016-08-22T04:18:31.951Z,80.71
2016-08-22T04:18:53.671Z,80.64
2016-08-22T04:19:15.391Z,80.55
2016-08-22T04:19:37.110Z,80.31
2016-08-22T04:19:58.829Z,80.07
2016-08-22T04:20:20.542Z,80.00
2016-08-22T04:20:42.254Z,80.12
2016-08-22T04:21:03.971Z,80.14
2016-08-22T04:21:25.680Z,80.02
2016-08-22T04:21:47.394Z,79.91
2016-08-22T04:22:09.114Z,79.72
2016-08-22T04:22:30.825Z,79.31
2016-08-22T04:22:52.544Z,79.03
2016-08-22T04:23:14.306Z,79.58
2016-08-22T04:23:36.025Z,80.07
2016-08-22T04:23:57.729Z,80.22
2016-08-22T04:24:19.454Z,80.13
2016-08-22T04:24:41.171Z,80.03
2016-08-22T04:25:02.894Z,79.72
2016-08-22T04:25:24.615Z,79.68
2016-08-22T04:25:46.331Z,79.78
2016-08-22T04:26:08.053Z,79.94
2016-08-22T04:26:29.770Z,79.69
2016-08-22T04:26:51.486Z,79.72
2016-08-22T04:27:13.211Z,79.46
2016-08-22T04:27:35.058Z,79.26
2016-08-22T04:27:56.782Z,78.99
2016-08-22T04:28:18.499Z,78.80
2016-08-22T04:28:40.235Z,79.07
2016-08-22T04:29:01.951Z,78.74
2016-08-22T04:29:23.669Z,78.68
2016-08-22T04:29:45.383Z,78.80
2016-08-22T04:30:07.101Z,78.92
2016-08-22T04:30:28.821Z,79.11
2016-08-22T04:30:50.545Z,79.44
2016-08-22T04:31:12.258Z,79.82
2016-08-22T04:31:33.987Z,79.38
2016-08-22T04:31:55.715Z,79.28
2016-08-22T04:32:17.433Z,79.45
2016-08-22T04:32:39.155Z,79.51
2016-08-22T04:33:00.886Z,79.60
2016-08-22T04:33:22.603Z,80.26
2016-08-22T04:33:44.317Z,80.16
2016-08-22T04:34:06.043Z,79.83
2016-08-22T04:34:27.760Z,79.76
2016-08-22T04:34:49.479Z,79.80
2016-08-22T04:35:11.203Z,80.18
2016-08-22T04:35:32.924Z,80.55
2016-08-22T04:35:54.647Z,80.49
2016-08-22T04:36:16.362Z,80.46
2016-08-22T04:36:38.096Z,80.06
2016-08-22T04:36:59.812Z,80.06
2016-08-22T04:37:21.536Z,79.69
2016-08-22T04:37:43.254Z,80.00
2016-08-22T04:38:05.009Z,79.79
2016-08-22T04:38:26.771Z,79.41
2016-08-22T04:38:48.506Z,79.53
2016-08-22T04:39:10.218Z,79.88
2016-08-22T04:39:31.951Z,79.92
2016-08-22T04:39:53.652Z,79.73